createdAt,value
2023-01-23T07:10:49.607Z,19.77
2023-01-23T07:13:18.118Z,19.90
2023-01-23T07:15:47.080Z,20.02
2023-01-23T07:18:14.095Z,20.30
2023-01-23T07:20:44.695Z,21.23
2023-01-23T07:23:12.262Z,20.63
2023-01-23T07:25:39.700Z,23.13
2023-01-23T07:28:06.748Z,20.63
2023-01-23T07:30:34.004Z,20.92
2023-01-23T07:33:01.103Z,20.60
2023-01-23T07:35:29.304Z,20.80
2023-01-23T07:37:56.567Z,19.27
2023-01-23T07:40:39.527Z,19.55
2023-01-23T07:43:09.804Z,20.45
2023-01-23T07:45:38.493Z,20.80
2023-01-23T07:48:05.334Z,20.58
2023-01-23T07:50:32.383Z,20.67
2023-01-23T07:52:59.337Z,22.00
2023-01-23T07:55:27.166Z,21.60
2023-01-23T07:57:54.590Z,21.05
2023-01-23T08:00:24.383Z,20.55
2023-01-23T08:02:52.130Z,20.50
2023-01-23T08:05:19.005Z,22.23
2023-01-23T08:07:45.917Z,20.33
2023-01-23T08:10:13.163Z,20.45
2023-01-23T08:12:43.744Z,20.55
2023-01-23T08:15:20.125Z,19.67
2023-01-23T08:17:46.993Z,19.80
2023-01-23T08:20:14.899Z,20.05
2023-01-23T08:22:42.012Z,19.98
2023-01-23T08:25:10.492Z,20.83
2023-01-23T08:27:37.895Z,20.52
2023-01-23T08:30:06.387Z,20.73
2023-01-23T08:56:26.230Z,20.13
2023-01-23T08:59:03.203Z,20.83
2023-01-23T09:01:30.177Z,20.23
2023-01-23T09:04:03.031Z,20.70
2023-01-23T09:06:30.911Z,21.58
2023-01-23T09:08:57.890Z,20.98
2023-01-23T09:11:25.338Z,20.50
2023-01-23T09:13:54.335Z,21.38
2023-01-23T09:16:21.423Z,22.15
2023-01-23T09:18:48.406Z,20.05
2023-01-23T09:21:17.382Z,21.65
2023-01-23T09:23:45.784Z,20.98
2023-01-23T09:26:15.216Z,21.10
2023-01-23T09:28:42.981Z,21.58
2023-01-23T09:31:13.439Z,19.67
2023-01-23T09:33:54.551Z,19.45
2023-01-23T09:36:37.556Z,21.10
2023-01-23T09:39:09.938Z,21.85
2023-01-23T09:41:39.493Z,22.55
2023-01-23T09:44:13.576Z,21.08
2023-01-23T09:46:53.539Z,21.50
2023-01-23T09:49:46.258Z,21.90
2023-01-23T09:52:26.213Z,22.15
2023-01-23T09:55:02.867Z,20.83
2023-01-23T09:57:42.497Z,22.23
2023-01-23T10:00:15.907Z,23.33
2023-01-23T10:02:43.987Z,20.63
2023-01-23T10:05:20.616Z,21.57
2023-01-23T10:08:10.840Z,22.23
2023-01-23T10:14:17.223Z,20.75
2023-01-23T10:17:07.590Z,19.65
2023-01-23T10:20:02.207Z,21.47
2023-01-23T10:22:34.920Z,20.80
2023-01-23T10:25:10.129Z,20.35
2023-01-23T10:27:43.324Z,22.48
2023-01-23T10:30:37.023Z,21.20
2023-01-23T10:33:13.671Z,20.65
2023-01-23T10:39:00.044Z,21.17
2023-01-23T10:41:27.176Z,21.03
2023-01-23T10:43:58.620Z,20.95
2023-01-23T10:46:38.920Z,20.85
2023-01-23T10:49:06.315Z,20.53
2023-01-23T10:51:46.896Z,19.90
2023-01-23T10:54:31.295Z,21.63
2023-01-23T10:56:59.287Z,19.43
2023-01-23T10:59:31.787Z,21.13
2023-01-23T11:02:15.885Z,21.10
2023-01-23T11:04:51.578Z,22.20
2023-01-23T11:07:32.648Z,21.98
2023-01-23T11:10:19.996Z,20.38
2023-01-23T11:12:55.354Z,21.67
2023-01-23T11:15:28.520Z,21.00
2023-01-23T11:17:58.794Z,20.88
2023-01-23T11:20:28.924Z,20.00
2023-01-23T11:23:18.074Z,20.73
2023-01-23T11:25:52.503Z,20.43
2023-01-23T11:28:33.895Z,19.90
2023-01-23T11:31:15.059Z,19.60
2023-01-23T11:33:54.884Z,20.42
2023-01-23T11:36:36.960Z,20.90
2023-01-23T11:39:32.719Z,19.77
2023-01-23T11:41:59.718Z,19.33
2023-01-23T11:44:28.274Z,20.63
2023-01-23T11:47:21.657Z,22.17
2023-01-23T11:50:04.471Z,21.45
2023-01-23T11:52:34.275Z,22.75
2023-01-23T11:55:01.119Z,20.13
2023-01-23T11:57:51.121Z,23.10
2023-01-23T12:00:29.005Z,21.95
2023-01-23T12:03:18.223Z,20.90
2023-01-23T12:06:13.828Z,21.50
2023-01-23T12:09:00.127Z,21.00
2023-01-23T12:11:32.311Z,21.47
2023-01-23T12:14:14.826Z,22.03
2023-01-23T12:16:53.953Z,23.67
2023-01-23T12:19:43.650Z,21.97
2023-01-23T12:22:27.700Z,21.50
2023-01-23T12:25:23.000Z,21.13
2023-01-23T12:28:04.508Z,20.70
2023-01-23T12:30:53.116Z,20.98
2023-01-23T12:33:47.023Z,21.10
2023-01-23T12:36:31.764Z,19.75
2023-01-23T12:39:20.748Z,20.83
2023-01-23T12:41:53.733Z,19.77
2023-01-23T12:44:37.405Z,20.47
2023-01-23T12:47:23.459Z,21.27
2023-01-23T12:49:59.844Z,20.43
2023-01-23T12:52:53.269Z,21.20
2023-01-23T12:55:33.525Z,19.75
2023-01-23T12:58:08.951Z,21.02
2023-01-23T13:12:22.257Z,18.57
2023-01-23T13:15:30.894Z,19.33
2023-01-23T13:17:49.013Z,20.08
2023-01-23T13:20:39.142Z,19.57
2023-01-23T13:23:32.385Z,20.33
2023-01-23T13:26:19.602Z,18.97
2023-01-23T13:28:55.593Z,19.83
2023-01-23T13:31:45.506Z,20.27
2023-01-23T13:34:18.466Z,20.33
2023-01-23T13:36:52.358Z,19.17
2023-01-23T13:39:30.110Z,18.93
2023-01-23T13:42:12.487Z,19.50
2023-01-23T13:45:17.720Z,20.03
2023-01-23T14:30:27.336Z,21.27
2023-01-23T14:32:56.388Z,19.42
2023-01-23T14:35:56.068Z,20.47
2023-01-23T14:38:34.464Z,19.87
2023-01-23T14:41:08.805Z,18.10
2023-01-23T14:43:36.537Z,19.38
2023-01-23T14:46:34.032Z,18.17
2023-01-23T14:49:01.411Z,17.67
2023-01-23T14:51:31.441Z,18.42
2023-01-23T14:54:01.056Z,16.60
2023-01-23T14:56:42.977Z,17.63
2023-01-23T14:59:23.255Z,17.27
2023-01-23T15:01:54.795Z,15.45
2023-01-23T15:04:23.546Z,16.90
2023-01-23T15:06:56.338Z,15.90
2023-01-23T15:09:34.035Z,14.50
2023-01-23T15:12:16.616Z,13.00
2023-01-23T15:14:43.984Z,13.00
2023-01-23T15:17:20.486Z,12.23
2023-01-23T15:19:59.512Z,11.63
2023-01-23T15:22:34.117Z,12.52
2023-01-23T15:25:37.779Z,12.63
2023-01-23T15:28:47.238Z,12.98
2023-01-23T15:31:32.302Z,12.65
2023-01-23T15:34:14.567Z,12.98
2023-01-23T15:36:52.229Z,12.23
2023-01-23T15:39:31.808Z,13.77
2023-01-23T15:42:08.911Z,14.30
2023-01-23T15:50:33.330Z,15.27
2023-01-23T15:59:14.223Z,15.73
2023-01-23T16:01:41.126Z,16.02
2023-01-23T16:04:08.089Z,14.55
2023-01-23T16:06:35.225Z,16.73
2023-01-23T16:09:06.041Z,16.60
2023-01-23T16:11:35.397Z,16.00
2023-01-23T16:14:02.349Z,15.93
2023-01-23T16:16:30.254Z,16.13
2023-01-23T16:18:57.183Z,16.52
2023-01-23T16:21:27.863Z,16.35
2023-01-23T16:23:55.582Z,15.85
2023-01-23T16:26:23.617Z,16.05
2023-01-23T16:28:50.483Z,14.18
2023-01-23T16:31:18.019Z,13.32
2023-01-23T16:33:45.028Z,11.07
2023-01-23T16:36:14.978Z,10.77
2023-01-23T16:38:43.941Z,9.70
2023-01-23T16:41:11.160Z,9.60
2023-01-23T16:43:37.914Z,9.82
2023-01-23T16:46:04.916Z,9.48
2023-01-23T16:48:31.681Z,10.20
2023-01-23T16:51:08.205Z,9.77
2023-01-23T16:53:38.144Z,10.25
2023-01-23T16:56:06.445Z,11.05
2023-01-23T16:58:39.341Z,12.45
2023-01-23T17:01:15.295Z,11.65
2023-01-23T17:03:42.515Z,12.98
2023-01-23T17:06:14.033Z,12.00
2023-01-23T17:08:41.610Z,12.35
2023-01-23T17:11:09.043Z,12.15
2023-01-23T17:13:37.311Z,11.65
2023-01-23T17:16:07.357Z,11.75
2023-01-23T17:18:39.728Z,11.45
2023-01-23T17:21:07.021Z,11.85
2023-01-23T17:23:34.552Z,12.65
2023-01-23T17:26:01.896Z,12.23
2023-01-23T17:28:29.618Z,12.27
2023-01-23T17:30:58.101Z,12.57
2023-01-23T17:33:28.334Z,12.85
2023-01-23T17:35:56.208Z,13.45
2023-01-23T17:38:24.893Z,12.55
2023-01-23T17:40:52.637Z,12.57
2023-01-23T17:43:21.777Z,12.37
2023-01-23T17:45:50.446Z,13.57
2023-01-23T17:48:25.780Z,12.93
2023-01-23T17:50:52.865Z,12.52
2023-01-23T17:53:19.678Z,14.30
2023-01-23T17:55:49.237Z,14.18
2023-01-23T17:58:16.163Z,13.40
2023-01-23T18:00:44.307Z,14.55
2023-01-23T18:03:17.408Z,14.95
2023-01-23T18:05:44.357Z,12.57
2023-01-23T18:08:15.539Z,12.85
2023-01-23T18:10:44.678Z,14.53
2023-01-23T18:13:22.205Z,13.18
2023-01-23T18:16:09.476Z,13.60
2023-01-23T18:18:41.918Z,14.35
2023-01-23T18:21:18.050Z,14.30
2023-01-23T18:23:45.416Z,14.25
2023-01-23T18:26:18.853Z,13.93
2023-01-23T18:28:55.809Z,13.73
2023-01-23T18:31:55.072Z,13.82
2023-01-23T18:34:46.106Z,13.57
2023-01-23T18:37:46.994Z,15.07
2023-01-23T18:40:27.534Z,14.93
2023-01-23T18:43:34.247Z,13.85
2023-01-23T18:46:01.642Z,13.30
2023-01-23T18:48:28.763Z,14.37
2023-01-23T18:51:09.260Z,14.68
2023-01-23T18:53:53.129Z,13.20
2023-01-23T18:56:39.781Z,13.63
2023-01-23T18:59:34.803Z,13.87
2023-01-23T19:02:12.939Z,13.30
2023-01-23T19:04:50.372Z,12.83
2023-01-23T19:07:19.081Z,13.23
2023-01-23T19:09:47.189Z,13.80
2023-01-23T19:12:40.688Z,13.60
2023-01-23T19:15:20.173Z,13.97
2023-01-23T19:17:55.825Z,14.50
2023-01-23T19:20:45.241Z,14.48
2023-01-23T19:23:36.300Z,14.13
2023-01-23T19:26:03.835Z,14.77
2023-01-23T19:28:31.007Z,14.13
2023-01-23T19:30:58.244Z,13.80
2023-01-23T19:33:24.989Z,13.95
2023-01-23T19:35:54.989Z,14.10
2023-01-23T19:41:06.094Z,14.13
2023-01-23T19:43:32.971Z,14.87
2023-01-23T19:45:59.954Z,15.10
2023-01-23T19:48:26.773Z,14.60
2023-01-23T19:50:54.165Z,15.30
2023-01-23T19:53:21.252Z,14.52
2023-01-23T19:55:48.068Z,15.43
2023-01-23T19:58:14.966Z,16.40
2023-01-23T20:00:41.902Z,16.10
2023-01-23T20:03:13.817Z,16.40
2023-01-23T20:05:40.703Z,16.63
2023-01-23T20:08:09.191Z,16.13
2023-01-23T20:10:36.930Z,15.17
2023-01-23T20:13:03.790Z,17.38
2023-01-23T20:15:30.689Z,17.20
2023-01-23T20:17:57.581Z,16.45
2023-01-23T20:20:24.840Z,16.63
2023-01-23T20:22:52.227Z,16.52
2023-01-23T20:25:19.379Z,18.58
2023-01-23T20:27:46.283Z,17.30
2023-01-23T20:30:17.116Z,18.10
2023-01-23T20:32:44.062Z,18.23
2023-01-23T20:35:10.858Z,17.85
2023-01-23T20:37:40.331Z,18.15
2023-01-23T20:40:11.918Z,18.40
2023-01-23T20:42:39.177Z,19.15
2023-01-23T20:45:07.139Z,19.60
2023-01-23T20:47:37.228Z,19.25
2023-01-23T20:50:05.037Z,19.63
2023-01-23T20:52:50.542Z,19.98
2023-01-23T20:55:17.891Z,19.10
2023-01-23T20:58:03.337Z,19.77
2023-01-23T21:00:30.122Z,21.15
2023-01-23T21:03:04.786Z,20.38
2023-01-23T21:05:31.951Z,19.60
2023-01-23T21:07:58.807Z,20.33
2023-01-23T21:10:26.461Z,20.58
2023-01-23T21:12:58.262Z,19.88
2023-01-23T21:15:25.422Z,20.48
2023-01-23T21:17:52.418Z,20.90
2023-01-23T21:20:19.954Z,19.52
2023-01-23T21:22:46.740Z,19.58
2023-01-23T21:25:13.672Z,19.10
2023-01-23T21:27:40.454Z,18.73
2023-01-23T21:30:08.013Z,19.17
2023-01-23T21:32:35.020Z,18.08
2023-01-23T21:35:01.842Z,19.90
2023-01-23T21:37:28.757Z,19.85
2023-01-23T21:39:55.853Z,20.30
2023-01-23T21:42:24.860Z,18.95
2023-01-23T21:44:52.969Z,18.95
2023-01-23T21:47:20.103Z,20.13
2023-01-23T21:49:47.033Z,19.23
2023-01-23T21:52:27.649Z,19.77
2023-01-23T21:55:02.958Z,19.00
2023-01-23T21:57:33.792Z,18.05
2023-01-23T22:00:20.292Z,19.33
2023-01-23T22:02:47.442Z,16.92
2023-01-23T22:05:14.870Z,17.50
2023-01-23T22:07:45.155Z,17.40
2023-01-23T22:10:12.354Z,17.70
2023-01-23T22:12:42.433Z,18.60
2023-01-23T22:15:12.682Z,17.27
2023-01-23T22:17:39.566Z,17.45
2023-01-23T22:20:07.247Z,17.67
2023-01-23T22:22:34.135Z,17.47
2023-01-23T22:25:03.619Z,17.27
2023-01-23T22:27:30.644Z,16.25
2023-01-23T22:29:57.749Z,16.63
2023-01-23T22:32:25.206Z,17.52
2023-01-23T22:34:52.258Z,16.45
2023-01-23T22:37:20.402Z,17.20
2023-01-23T22:39:51.421Z,16.77
2023-01-23T22:42:21.248Z,17.30
2023-01-23T22:44:54.257Z,16.95
2023-01-23T22:47:21.195Z,16.08
2023-01-23T22:49:48.020Z,17.23
2023-01-23T22:52:15.124Z,18.17
2023-01-23T22:54:41.998Z,16.95
2023-01-23T22:57:11.533Z,17.90
2023-01-23T22:59:38.626Z,17.35
2023-01-23T23:02:05.590Z,17.52
2023-01-23T23:04:32.363Z,16.55
2023-01-23T23:07:00.880Z,18.25
2023-01-23T23:09:30.776Z,17.52
2023-01-23T23:12:01.454Z,18.45
2023-01-23T23:14:28.308Z,18.30
2023-01-23T23:16:55.045Z,19.58
2023-01-23T23:19:21.876Z,19.13
2023-01-23T23:21:51.315Z,18.55
2023-01-23T23:24:18.401Z,19.65
2023-01-23T23:26:57.238Z,19.80
2023-01-23T23:29:24.109Z,20.85
2023-01-23T23:31:52.263Z,20.17
2023-01-23T23:34:20.038Z,21.40
2023-01-23T23:36:47.160Z,21.33
2023-01-23T23:39:14.167Z,21.33
2023-01-23T23:41:41.106Z,21.10
2023-01-23T23:44:08.033Z,22.58
2023-01-23T23:46:34.756Z,22.20
2023-01-23T23:49:01.489Z,22.15
2023-01-23T23:51:28.402Z,22.88
2023-01-23T23:53:56.749Z,22.15
2023-01-23T23:56:25.928Z,21.42
2023-01-23T23:58:53.013Z,23.42
